Time;durP1;ratioP1;P1;durP2;ratioP2;P2;SDS_P1;SDS_P2;PMS_P1;PMS_P2;Temp;Humidity;BMP_temperature;BMP_pressure;BME280_temperature;BME280_humidity;BME280_pressure;Samples;Min_cycle;Max_cycle;Signal;HPM_P1;HPM_P2
2022/08/15 00:03:01;;;;;;;3.55;0.70;;;;;;;;;;21073588;28;20212;-85
2022/08/15 00:13:29;;;;;;;2.05;1.10;;;27.50;87.10;;;;;;21051513;28;20276;-84
2022/08/15 00:23:31;;;;;;;2.28;0.77;;;;;;;;;;21082782;28;20239;-84
2022/08/15 00:33:33;;;;;;;1.25;0.60;;;;;;;;;;21051189;28;20220;-84
2022/08/15 00:43:36;;;;;;;2.20;0.85;;;;;;;;;;21066961;28;20808;-87
2022/08/15 00:53:39;;;;;;;1.75;0.90;;;;;;;;;;21032425;28;20215;-87
2022/08/15 01:03:44;;;;;;;1.30;0.70;;;;;;;;;;21064383;28;20279;-86
2022/08/15 01:13:48;;;;;;;2.08;0.90;;;;;;;;;;21062799;28;20235;-87
2022/08/15 01:23:53;;;;;;;1.50;0.90;;;;;;;;;;21063824;28;20688;-87
2022/08/15 01:33:59;;;;;;;1.10;0.77;;;;;;;;;;21028815;28;20216;-87
2022/08/15 01:44:08;;;;;;;1.55;0.82;;;;;;;;;;21044179;28;20279;-86
2022/08/15 01:54:13;;;;;;;1.33;0.75;;;26.80;90.30;;;;;;21079110;28;20211;-84
2022/08/15 02:04:17;;;;;;;3.28;1.05;;;;;;;;;;21032089;28;20268;-85
2022/08/15 02:14:20;;;;;;;2.03;1.00;;;;;;;;;;21041256;28;20218;-86
2022/08/15 02:24:23;;;;;;;1.15;0.80;;;;;;;;;;21041607;28;20741;-86
2022/08/15 02:34:27;;;;;;;1.48;0.77;;;;;;;;;;21057482;28;20273;-87
2022/08/15 02:44:31;;;;;;;2.05;0.80;;;;;;;;;;21056615;28;20233;-84
2022/08/15 02:54:37;;;;;;;1.10;0.65;;;;;;;;;;21056640;28;20227;-85
2022/08/15 03:04:40;;;;;;;3.33;1.02;;;;;;;;;;21018034;28;20210;-85
2022/08/15 03:14:44;;;;;;;1.50;0.75;;;;;;;;;;21037946;28;20716;-85
2022/08/15 03:24:47;;;;;;;0.90;0.63;;;;;;;;;;20898138;28;20225;-85
2022/08/15 03:34:49;;;;;;;0.98;0.60;;;;;;;;;;20904771;28;20220;-86
2022/08/15 03:44:51;;;;;;;1.33;0.50;;;;;;;;;;20969691;28;20622;-84
2022/08/15 03:55:00;;;;;;;2.70;0.70;;;;;;;;;;21010911;28;20224;-84
2022/08/15 04:05:02;;;;;;;1.50;0.75;;;;;;;;;;21051030;28;20229;-84
2022/08/15 04:15:09;;;;;;;3.58;0.80;;;;;;;;;;20985413;28;20217;-83
2022/08/15 04:25:13;;;;;;;0.80;0.60;;;;;;;;;;20969573;28;20225;-84
2022/08/15 04:35:16;;;;;;;1.25;0.73;;;;;;;;;;20970904;28;20221;-82
2022/08/15 04:45:18;;;;;;;1.33;0.80;;;;;;;;;;20999759;28;20211;-84
2022/08/15 04:55:21;;;;;;;1.33;0.65;;;;;;;;;;20964927;28;20289;-84
2022/08/15 05:05:23;;;;;;;0.80;0.60;;;;;;;;;;20953028;28;20219;-85
2022/08/15 05:15:25;;;;;;;1.58;0.50;;;;;;;;;;20988403;28;20870;-85
2022/08/15 05:25:31;;;;;;;2.75;0.70;;;;;;;;;;20945247;28;20212;-83
2022/08/15 05:35:35;;;;;;;1.33;0.60;;;;;;;;;;20960560;28;20227;-82
2022/08/15 05:45:39;;;;;;;3.65;0.65;;;;;;;;;;20943059;28;20229;-83
2022/08/15 05:55:53;;;;;;;3.40;0.68;;;24.80;99.90;;;;;;21024953;28;20231;-82
2022/08/15 06:05:56;;;;;;;1.92;0.50;;;;;;;;;;21024116;28;20207;-82
2022/08/15 06:16:07;;;;;;;0.90;0.60;;;;;;;;;;21074273;28;20214;-82
2022/08/15 06:27:07;;;;;;;1.55;1.00;;;25.20;88.50;;;;;;20910101;28;20224;-83
2022/08/15 06:37:34;;;;;;;1.05;0.63;;;25.00;99.90;;;;;;20841705;28;20260;-81
2022/08/15 06:47:38;;;;;;;0.70;0.52;;;;;;;;;;21039039;28;20207;-82
2022/08/15 06:58:04;;;;;;;1.13;0.80;;;24.80;93.20;;;;;;20946573;28;20717;-81
2022/08/15 07:08:23;;;;;;;8.00;1.13;;;;;;;;;;20991570;28;20198;-82
2022/08/15 07:18:44;;;;;;;0.82;0.60;;;;;;;;;;21053577;28;20235;-83
2022/08/15 07:29:10;;;;;;;3.45;0.80;;;25.20;96.50;;;;;;21015856;28;20757;-83
2022/08/15 07:39:27;;;;;;;2.78;0.60;;;24.90;99.90;;;;;;20967547;28;20230;-82
2022/08/15 07:49:30;;;;;;;2.28;0.77;;;;;;;;;;20947722;28;20268;-83
2022/08/15 07:59:36;;;;;;;1.85;0.60;;;25.30;99.90;;;;;;20957747;28;20280;-81
2022/08/15 08:10:12;;;;;;;1.52;0.70;;;;;;;;;;21042935;28;20288;-82
2022/08/15 08:20:26;;;;;;;1.15;0.63;;;;;;;;;;21008353;28;20229;-80
2022/08/15 08:30:37;;;;;;;1.65;0.80;;;25.80;99.90;;;;;;20964337;28;20204;-81
2022/08/15 08:51:09;;;;;;;1.95;0.75;;;;;;;;;;20994070;28;20201;-80
2022/08/15 09:01:22;;;;;;;1.83;0.65;;;;;;;;;;20993679;28;20254;-79
2022/08/15 09:11:32;;;;;;;1.42;0.70;;;26.00;97.00;;;;;;21047150;28;20277;-81
2022/08/15 09:21:34;;;;;;;3.80;0.80;;;;;;;;;;21011464;28;20232;-79
2022/08/15 09:31:39;;;;;;;1.10;0.70;;;25.70;94.80;;;;;;21024241;28;20216;-81
2022/08/15 09:41:46;;;;;;;0.80;0.60;;;;;;;;;;20917250;28;20243;-82
2022/08/15 09:51:57;;;;;;;2.03;0.95;;;;;;;;;;20884343;28;20270;-82
2022/08/15 10:02:19;;;;;;;1.40;0.90;;;25.70;99.90;;;;;;20894698;28;20403;-80
2022/08/15 10:12:23;;;;;;;1.25;0.82;;;26.30;96.90;;;;;;20899907;28;20294;-81
2022/08/15 10:22:25;;;;;;;1.30;0.80;;;;;;;;;;20897675;28;20233;-82
2022/08/15 10:32:30;;;;;;;1.20;0.80;;;;;;;;;;20928191;28;20758;-83
2022/08/15 10:42:42;;;;;;;1.83;0.60;;;;;;;;;;21009554;28;20299;-82
2022/08/15 10:52:50;;;;;;;2.28;0.70;;;;;;;;;;20874666;28;20217;-80
2022/08/15 11:02:55;;;;;;;0.98;0.60;;;;;;;;;;20891823;28;20278;-82
2022/08/15 11:13:01;;;;;;;1.10;0.70;;;;;;;;;;20888468;28;20258;-81
2022/08/15 11:23:03;;;;;;;1.10;0.70;;;;;;;;;;21010409;28;20219;-82
2022/08/15 11:33:40;;;;;;;0.57;0.47;;;;;;;;;;20970492;28;20212;-82
2022/08/15 11:43:42;;;;;;;0.82;0.60;;;;;;;;;;20885586;28;20271;-81
2022/08/15 11:54:01;;;;;;;11.88;1.45;;;;;;;;;;20862276;28;20749;-82
2022/08/15 12:04:07;;;;;;;3.50;0.73;;;29.20;85.40;;;;;;20876035;28;20229;-81
2022/08/15 12:14:15;;;;;;;0.90;0.50;;;;;;;;;;21037754;28;20643;-82
2022/08/15 12:24:24;;;;;;;1.30;0.57;;;;;;;;;;20998252;28;20812;-82
2022/08/15 12:34:29;;;;;;;1.48;0.77;;;;;;;;;;20980104;28;20284;-82
2022/08/15 12:44:35;;;;;;;0.95;0.63;;;;;;;;;;21003681;28;20296;-81
2022/08/15 12:54:37;;;;;;;1.40;0.70;;;;;;;;;;20986090;28;20965;-82
2022/08/15 13:04:42;;;;;;;1.85;0.90;;;;;;;;;;21004843;28;20291;-80
2022/08/15 13:14:44;;;;;;;2.17;0.82;;;;;;;;;;21009970;28;20232;-79
2022/08/15 13:24:45;;;;;;;0.30;0.30;;;;;;;;;;21001608;28;20262;-81
2022/08/15 13:34:47;;;;;;;1.08;0.65;;;;;;;;;;21017575;28;20631;-80
2022/08/15 13:44:49;;;;;;;1.00;0.57;;;;;;;;;;20929061;28;20239;-81
2022/08/15 13:54:50;;;;;;;2.55;0.77;;;;;;;;;;20969701;28;20216;-79
2022/08/15 14:04:53;;;;;;;4.85;1.48;;;;;;;;;;20956598;28;20243;-81
2022/08/15 14:14:57;;;;;;;2.25;0.80;;;;;;;;;;20949992;28;20244;-81
2022/08/15 14:25:00;;;;;;;1.33;0.60;;;;;;;;;;20987815;28;20644;-80
2022/08/15 14:35:02;;;;;;;1.13;0.60;;;;;;;;;;20988705;28;20260;-80
2022/08/15 14:45:04;;;;;;;1.75;0.80;;;;;;;;;;20937171;28;20216;-81
2022/08/15 14:55:09;;;;;;;1.02;0.68;;;;;;;;;;20986692;28;20680;-81
2022/08/15 15:05:11;;;;;;;1.30;0.90;;;;;;;;;;20986667;28;20269;-81
2022/08/15 15:15:13;;;;;;;1.90;1.23;;;;;;;;;;20987363;28;20319;-79
2022/08/15 15:25:15;;;;;;;1.75;1.08;;;;;;;;;;20969050;28;20238;-80
2022/08/15 15:35:17;;;;;;;1.67;0.98;;;;;;;;;;20991040;28;20215;-80
2022/08/15 15:45:19;;;;;;;1.48;0.98;;;;;;;;;;20985051;28;20208;-80
2022/08/15 15:55:21;;;;;;;1.90;1.08;;;27.50;94.50;;;;;;21000748;28;20619;-81
2022/08/15 16:05:28;;;;;;;1.10;0.60;;;;;;;;;;20981822;28;20568;-81
2022/08/15 16:15:49;;;;;;;1.80;1.08;;;;;;;;;;21026162;28;20219;-82
2022/08/15 16:25:57;;;;;;;4.15;1.10;;;;;;;;;;21047154;28;20218;-79
2022/08/15 16:36:17;;;;;;;2.13;0.98;;;;;;;;;;21079435;28;20224;-79
2022/08/15 16:46:32;;;;;;;1.85;1.10;;;;;;;;;;21078359;28;20284;-79
2022/08/15 16:56:52;;;;;;;1.48;0.90;;;;;;;;;;21029612;28;20212;-81
2022/08/15 17:06:59;;;;;;;1.58;0.90;;;;;;;;;;20912930;28;20204;-79
2022/08/15 17:17:20;;;;;;;1.85;0.88;;;26.00;93.30;;;;;;20962733;28;20226;-79
2022/08/15 17:27:25;;;;;;;1.30;0.90;;;;;;;;;;21021371;28;20272;-81
2022/08/15 17:37:27;;;;;;;1.27;0.93;;;;;;;;;;21032688;28;20232;-80
2022/08/15 17:47:34;;;;;;;1.35;0.80;;;;;;;;;;20993944;28;20285;-81
2022/08/15 17:57:50;;;;;;;1.13;0.57;;;;;;;;;;20988809;28;20219;-80
2022/08/15 18:07:53;;;;;;;1.05;0.55;;;25.60;99.90;;;;;;21012616;28;20228;-80
2022/08/15 18:18:04;;;;;;;1.08;0.60;;;25.40;99.90;;;;;;20998965;28;20783;-79
2022/08/15 18:28:20;;;;;;;1.15;0.60;;;;;;;;;;21058243;28;20199;-80
2022/08/15 18:38:25;;;;;;;1.10;0.50;;;25.10;99.90;;;;;;21035326;28;20291;-79
2022/08/15 18:48:27;;;;;;;1.05;0.60;;;25.00;99.90;;;;;;20987750;28;20210;-80
2022/08/15 18:58:31;;;;;;;0.73;0.47;;;;;;;;;;21078553;28;20213;-81
2022/08/15 19:08:42;;;;;;;1.30;0.70;;;24.40;99.90;;;;;;21064509;28;20222;-80
2022/08/15 19:18:53;;;;;;;0.60;0.40;;;24.50;99.90;;;;;;21091914;28;20316;-80
2022/08/15 19:29:01;;;;;;;0.60;0.40;;;;;;;;;;21093903;28;20253;-80
2022/08/15 19:39:38;;;;;;;1.13;0.40;;;24.40;99.90;;;;;;21117373;28;20220;-80
2022/08/15 20:00:26;;;;;;;1.58;0.90;;;;;;;;;;21108058;28;20278;-81
2022/08/15 20:10:39;;;;;;;1.10;0.60;;;;;;;;;;21142457;28;20294;-79
2022/08/15 20:20:47;;;;;;;1.02;0.60;;;;;;;;;;21015194;28;20281;-80
2022/08/15 20:30:56;;;;;;;1.98;0.80;;;24.20;99.90;;;;;;21012219;28;20246;-81
2022/08/15 20:41:01;;;;;;;1.90;0.90;;;;;;;;;;20980819;28;20225;-80
2022/08/15 20:51:07;;;;;;;1.00;0.55;;;24.10;99.90;;;;;;20997857;28;20214;-80
2022/08/15 21:01:15;;;;;;;1.10;0.70;;;;;;;;;;20998930;28;20221;-79
2022/08/15 21:11:30;;;;;;;2.22;0.60;;;;;;;;;;21014699;28;20230;-81
2022/08/15 21:21:33;;;;;;;1.25;0.70;;;;;;;;;;20981951;28;20221;-79
2022/08/15 21:31:37;;;;;;;1.33;0.70;;;;;;;;;;20997788;28;20214;-80
2022/08/15 21:41:42;;;;;;;1.00;0.60;;;;;;;;;;20996746;28;20294;-80
2022/08/15 21:52:06;;;;;;;1.00;0.60;;;23.90;99.90;;;;;;20978120;28;20197;-80
2022/08/15 22:02:07;;;;;;;1.50;0.65;;;;;;;;;;20994858;28;20223;-81
2022/08/15 22:12:12;;;;;;;0.90;0.75;;;;;;;;;;21029139;28;20219;-79
2022/08/15 22:22:15;;;;;;;0.93;0.60;;;;;;;;;;21059822;28;20267;-80
2022/08/15 22:32:18;;;;;;;1.08;0.70;;;;;;;;;;21075508;28;20565;-80
2022/08/15 22:42:29;;;;;;;1.25;0.73;;;;;;;;;;20997064;28;20237;-80
2022/08/15 22:52:31;;;;;;;1.42;0.95;;;;;;;;;;20976274;28;20313;-79
2022/08/15 23:02:34;;;;;;;0.88;0.80;;;;;;;;;;20993231;28;20626;-79
2022/08/15 23:12:37;;;;;;;1.52;0.90;;;;;;;;;;20975109;28;20596;-79
2022/08/15 23:22:39;;;;;;;1.42;0.77;;;;;;;;;;20974658;28;20222;-79
2022/08/15 23:32:41;;;;;;;1.65;0.90;;;;;;;;;;20993307;28;20242;-78
2022/08/15 23:42:51;;;;;;;2.05;0.80;;;23.10;99.90;;;;;;21031498;28;20584;-79
2022/08/15 23:52:54;;;;;;;1.20;0.80;;;;;;;;;;20976120;28;20652;-80
